Time;durP1;ratioP1;P1;durP2;ratioP2;P2;SDS_P1;SDS_P2;PMS_P1;PMS_P2;Temp;Humidity;BMP_temperature;BMP_pressure;BME280_temperature;BME280_humidity;BME280_pressure;Samples;Min_cycle;Max_cycle;Signal;HPM_P1;HPM_P2
2021/06/24 00:00:48;;;;;;;5.18;3.58;;;15.60;99.90;;;;;;5081694;28;20506;-76
2021/06/24 00:03:14;;;;;;;6.95;4.13;;;15.60;99.90;;;;;;5079851;28;20505;-76
2021/06/24 00:05:41;;;;;;;6.88;4.70;;;15.50;99.90;;;;;;5087911;28;20032;-76
2021/06/24 00:08:08;;;;;;;5.93;4.20;;;15.50;99.90;;;;;;5081072;28;20047;-76
2021/06/24 00:10:35;;;;;;;6.50;4.72;;;15.50;99.90;;;;;;5091196;28;20157;-76
2021/06/24 00:13:01;;;;;;;6.10;4.50;;;15.60;99.90;;;;;;5076415;28;20502;-77
2021/06/24 00:15:27;;;;;;;5.95;4.47;;;15.50;99.90;;;;;;5080760;28;20116;-76
2021/06/24 00:17:52;;;;;;;6.93;4.70;;;15.50;99.90;;;;;;5089959;28;20486;-76
2021/06/24 00:20:17;;;;;;;5.25;3.92;;;15.50;99.90;;;;;;5085673;28;20028;-76
2021/06/24 00:22:43;;;;;;;12.60;5.03;;;15.50;99.90;;;;;;5091543;28;20364;-76
2021/06/24 00:25:09;;;;;;;11.85;4.65;;;15.50;99.90;;;;;;5091306;28;20047;-76
2021/06/24 00:27:34;;;;;;;5.25;4.00;;;15.50;99.90;;;;;;5083067;28;20021;-77
2021/06/24 00:30:00;;;;;;;6.82;4.32;;;15.50;99.90;;;;;;5086654;28;20044;-76
2021/06/24 00:32:25;;;;;;;6.93;4.28;;;15.50;99.90;;;;;;5081913;28;20090;-76
2021/06/24 00:34:51;;;;;;;5.85;4.20;;;15.50;99.90;;;;;;5080711;28;20016;-76
2021/06/24 00:37:16;;;;;;;5.00;3.95;;;15.50;99.90;;;;;;5079036;28;20023;-77
2021/06/24 00:39:42;;;;;;;5.50;4.40;;;15.50;99.90;;;;;;5084893;28;20031;-76
2021/06/24 00:42:08;;;;;;;6.00;4.45;;;15.50;99.90;;;;;;5091796;28;20077;-76
2021/06/24 00:44:34;;;;;;;6.90;4.28;;;15.50;99.90;;;;;;5084502;28;20548;-76
2021/06/24 00:47:00;;;;;;;7.18;4.38;;;15.40;99.90;;;;;;5084196;28;20022;-76
2021/06/24 00:49:25;;;;;;;8.65;4.47;;;15.40;99.90;;;;;;5084598;28;20020;-76
2021/06/24 00:51:51;;;;;;;7.57;4.15;;;15.50;99.90;;;;;;5083461;28;20073;-76
2021/06/24 00:54:16;;;;;;;7.30;4.25;;;15.40;99.90;;;;;;5087923;28;20073;-77
2021/06/24 00:56:42;;;;;;;6.95;4.63;;;15.40;99.90;;;;;;5075096;28;20016;-76
2021/06/24 00:59:07;;;;;;;7.07;4.47;;;15.40;99.90;;;;;;5085713;28;20571;-76
2021/06/24 01:01:34;;;;;;;7.28;4.15;;;15.30;99.90;;;;;;5080689;28;20048;-76
2021/06/24 01:04:00;;;;;;;8.63;4.40;;;15.30;99.90;;;;;;5087382;28;20521;-76
2021/06/24 01:06:25;;;;;;;7.43;4.30;;;15.40;99.90;;;;;;5078694;28;20042;-76
2021/06/24 01:08:51;;;;;;;8.68;4.28;;;15.40;99.90;;;;;;5079237;28;20048;-77
2021/06/24 01:11:17;;;;;;;6.13;4.30;;;15.30;99.90;;;;;;5079324;28;20029;-77
2021/06/24 01:13:44;;;;;;;6.07;4.20;;;15.40;99.90;;;;;;5084062;28;20122;-77
2021/06/24 01:16:10;;;;;;;5.55;3.80;;;15.40;99.90;;;;;;5077185;28;20037;-77
2021/06/24 01:18:36;;;;;;;6.40;4.43;;;15.40;99.90;;;;;;5072557;28;20028;-77
2021/06/24 01:21:02;;;;;;;7.32;4.45;;;15.40;99.90;;;;;;5087992;28;20027;-77
2021/06/24 01:23:28;;;;;;;7.68;4.72;;;15.40;99.90;;;;;;5079862;28;20039;-78
2021/06/24 01:25:53;;;;;;;7.88;5.05;;;15.40;99.90;;;;;;5083621;28;20383;-77
2021/06/24 01:28:19;;;;;;;6.93;4.70;;;15.40;99.90;;;;;;5084703;28;20711;-77
2021/06/24 01:30:45;;;;;;;7.63;4.50;;;15.40;99.90;;;;;;5072186;28;20105;-77
2021/06/24 01:33:12;;;;;;;6.68;4.30;;;15.40;99.90;;;;;;5087840;28;20028;-77
2021/06/24 01:35:38;;;;;;;7.60;4.28;;;15.40;99.90;;;;;;5081277;28;20130;-77
2021/06/24 01:38:06;;;;;;;5.63;3.88;;;15.40;99.90;;;;;;5081203;28;20024;-77
2021/06/24 01:40:31;;;;;;;5.00;4.20;;;15.30;99.90;;;;;;5087311;28;20023;-77
2021/06/24 01:42:57;;;;;;;7.13;4.40;;;15.30;99.90;;;;;;5085651;28;20050;-77
2021/06/24 01:45:23;;;;;;;7.35;4.78;;;15.30;99.90;;;;;;5080379;28;20027;-77
2021/06/24 01:47:49;;;;;;;5.72;3.88;;;15.30;99.90;;;;;;5080761;28;20031;-77
2021/06/24 01:50:15;;;;;;;6.45;4.90;;;15.30;99.90;;;;;;5088940;28;20039;-77
2021/06/24 01:52:45;;;;;;;5.60;4.32;;;15.30;99.90;;;;;;5086322;28;20115;-77
2021/06/24 01:55:15;;;;;;;12.45;4.85;;;15.30;99.90;;;;;;5079757;28;20516;-77
2021/06/24 01:57:41;;;;;;;6.53;4.97;;;15.30;99.90;;;;;;5079969;28;20024;-77
2021/06/24 02:00:09;;;;;;;6.70;4.63;;;15.30;99.90;;;;;;5079960;28;20383;-77
2021/06/24 02:02:35;;;;;;;7.15;4.82;;;15.20;99.90;;;;;;5082653;28;20438;-77
2021/06/24 02:05:01;;;;;;;6.50;4.68;;;15.30;99.90;;;;;;5082551;28;20028;-77
2021/06/24 02:07:27;;;;;;;7.80;4.85;;;15.30;99.90;;;;;;5087298;28;20056;-77
2021/06/24 02:09:52;;;;;;;6.15;4.55;;;15.30;99.90;;;;;;5081748;28;20398;-77
2021/06/24 02:12:18;;;;;;;7.70;4.70;;;15.30;99.90;;;;;;5071398;28;20025;-77
2021/06/24 02:14:43;;;;;;;7.32;5.32;;;15.30;99.90;;;;;;5085763;28;20502;-77
2021/06/24 02:17:09;;;;;;;7.53;4.45;;;15.30;99.90;;;;;;5086241;28;20043;-77
2021/06/24 02:19:34;;;;;;;8.52;4.32;;;15.40;99.90;;;;;;5077391;28;20016;-77
2021/06/24 02:22:00;;;;;;;8.95;4.93;;;15.40;99.90;;;;;;5075754;28;20050;-77
2021/06/24 02:24:25;;;;;;;7.90;4.32;;;15.40;99.90;;;;;;5086449;28;20035;-77
2021/06/24 02:26:51;;;;;;;6.90;4.72;;;15.40;99.90;;;;;;5076351;28;20490;-77
2021/06/24 02:29:16;;;;;;;6.32;5.00;;;15.50;99.90;;;;;;5078901;28;20023;-77
2021/06/24 02:31:42;;;;;;;8.77;4.70;;;15.40;99.90;;;;;;5087005;28;20027;-77
2021/06/24 02:34:07;;;;;;;7.20;4.07;;;15.40;99.90;;;;;;5075431;28;20074;-77
2021/06/24 02:36:33;;;;;;;8.50;4.60;;;15.40;99.90;;;;;;5076383;28;20024;-77
2021/06/24 02:38:58;;;;;;;8.85;4.25;;;15.50;99.90;;;;;;5088011;28;20078;-77
2021/06/24 02:41:24;;;;;;;5.60;4.70;;;15.50;99.90;;;;;;5087224;28;20677;-77
2021/06/24 02:43:50;;;;;;;6.40;5.00;;;15.40;99.90;;;;;;5074115;28;20090;-77
2021/06/24 02:46:15;;;;;;;6.55;4.55;;;15.40;99.90;;;;;;5076673;28;20051;-77
2021/06/24 02:48:41;;;;;;;6.82;4.75;;;15.40;99.90;;;;;;5080830;28;20030;-77
2021/06/24 02:51:06;;;;;;;8.35;4.75;;;15.40;99.90;;;;;;5074428;28;20030;-77
2021/06/24 02:53:32;;;;;;;8.38;5.80;;;15.40;99.90;;;;;;5072856;28;20029;-77
2021/06/24 02:55:57;;;;;;;9.30;4.82;;;15.40;99.90;;;;;;5074603;28;20024;-77
2021/06/24 02:58:23;;;;;;;8.98;4.57;;;15.40;99.90;;;;;;5083504;28;20039;-77
2021/06/24 03:00:49;;;;;;;6.75;4.82;;;15.40;99.90;;;;;;5083313;28;20017;-77
2021/06/24 03:03:14;;;;;;;7.47;4.95;;;15.50;99.90;;;;;;5081469;28;20379;-77
2021/06/24 03:05:40;;;;;;;8.80;5.03;;;15.50;99.90;;;;;;5078901;28;20111;-77
2021/06/24 03:08:05;;;;;;;8.57;4.85;;;15.50;99.90;;;;;;5084083;28;20047;-77
2021/06/24 03:10:32;;;;;;;8.07;4.53;;;15.50;99.90;;;;;;5077178;28;20070;-77
2021/06/24 03:12:57;;;;;;;8.90;4.97;;;15.50;99.90;;;;;;5077995;28;20024;-77
2021/06/24 03:15:23;;;;;;;6.85;4.43;;;15.50;99.90;;;;;;5080110;28;20055;-77
2021/06/24 03:17:48;;;;;;;8.57;4.75;;;15.60;99.90;;;;;;5081767;28;20024;-77
2021/06/24 03:20:15;;;;;;;10.15;4.88;;;15.60;99.90;;;;;;5084226;28;20031;-77
2021/06/24 03:22:40;;;;;;;7.80;4.82;;;15.60;99.90;;;;;;5088294;28;20032;-77
2021/06/24 03:25:07;;;;;;;7.88;4.80;;;15.60;99.90;;;;;;5085051;28;20043;-77
2021/06/24 03:27:33;;;;;;;6.65;4.40;;;15.60;99.90;;;;;;5081791;28;20031;-77
2021/06/24 03:29:59;;;;;;;9.15;4.65;;;15.60;99.90;;;;;;5077343;28;20026;-77
2021/06/24 03:32:25;;;;;;;10.38;4.60;;;15.60;99.90;;;;;;5083839;28;20036;-77
2021/06/24 03:34:50;;;;;;;7.78;4.45;;;15.60;99.90;;;;;;5079117;28;20037;-77
2021/06/24 03:37:16;;;;;;;7.82;4.68;;;15.60;99.90;;;;;;5079235;28;20028;-75
2021/06/24 03:39:43;;;;;;;7.75;4.97;;;15.60;99.90;;;;;;5086211;28;20028;-75
2021/06/24 03:42:09;;;;;;;7.75;4.82;;;15.60;99.90;;;;;;5080489;28;20475;-76
2021/06/24 03:44:34;;;;;;;7.57;5.00;;;15.70;99.90;;;;;;5082684;28;20036;-76
2021/06/24 03:47:00;;;;;;;7.90;4.75;;;15.70;99.90;;;;;;5078632;28;20028;-76
2021/06/24 03:49:25;;;;;;;8.02;4.50;;;15.70;99.90;;;;;;5082429;28;20501;-75
2021/06/24 03:51:51;;;;;;;8.05;4.32;;;15.70;99.90;;;;;;5085816;28;20016;-76
2021/06/24 03:54:16;;;;;;;9.15;4.75;;;15.70;99.90;;;;;;5081630;28;20032;-76
2021/06/24 03:56:42;;;;;;;6.07;4.38;;;15.80;99.90;;;;;;5078497;28;20406;-76
2021/06/24 03:59:07;;;;;;;9.07;4.85;;;15.80;99.90;;;;;;5083338;28;20107;-78
2021/06/24 04:01:42;;;;;;;6.78;4.15;;;15.80;99.90;;;;;;5076157;28;20013;-75
2021/06/24 04:04:11;;;;;;;7.60;4.32;;;15.90;99.90;;;;;;5084248;28;20024;-76
2021/06/24 04:06:37;;;;;;;6.95;4.32;;;15.90;99.90;;;;;;5082874;28;20035;-76
2021/06/24 04:09:04;;;;;;;5.63;4.43;;;15.90;99.90;;;;;;5075748;28;20045;-76
2021/06/24 04:11:29;;;;;;;9.57;5.38;;;15.90;99.90;;;;;;5086533;28;20032;-76
2021/06/24 04:13:55;;;;;;;10.50;4.95;;;16.00;99.90;;;;;;5085220;28;20085;-76
2021/06/24 04:16:20;;;;;;;11.15;4.70;;;16.00;99.90;;;;;;5088515;28;20539;-76
2021/06/24 04:18:46;;;;;;;10.82;4.95;;;16.00;99.90;;;;;;5086081;28;20021;-76
2021/06/24 04:21:11;;;;;;;8.68;4.68;;;16.10;99.90;;;;;;5085488;28;20483;-76
2021/06/24 04:23:37;;;;;;;6.95;4.95;;;16.10;99.90;;;;;;5079218;28;20024;-76
2021/06/24 04:26:02;;;;;;;9.35;4.70;;;16.10;99.90;;;;;;5082934;28;20029;-76
2021/06/24 04:28:28;;;;;;;6.63;4.80;;;16.10;99.90;;;;;;5081552;28;20035;-76
2021/06/24 04:30:53;;;;;;;10.32;5.00;;;16.10;99.90;;;;;;5080446;28;20038;-76
2021/06/24 04:33:19;;;;;;;7.28;5.13;;;16.10;99.90;;;;;;5078861;28;20188;-76
2021/06/24 04:35:44;;;;;;;6.22;4.63;;;16.20;99.90;;;;;;5089956;28;20104;-77
2021/06/24 04:38:10;;;;;;;10.27;5.05;;;16.20;99.90;;;;;;5084049;28;20020;-76
2021/06/24 04:40:36;;;;;;;9.27;5.20;;;16.20;99.90;;;;;;5077531;28;20491;-76
2021/06/24 04:43:01;;;;;;;6.68;4.75;;;16.20;99.90;;;;;;5084614;28;20031;-76
2021/06/24 04:45:27;;;;;;;10.10;5.07;;;16.20;99.90;;;;;;5078552;28;20039;-76
2021/06/24 04:47:53;;;;;;;8.10;4.72;;;16.30;99.90;;;;;;5077185;28;20031;-76
2021/06/24 04:50:19;;;;;;;10.75;4.70;;;16.30;99.90;;;;;;5084588;28;20036;-76
2021/06/24 04:52:44;;;;;;;10.75;5.00;;;16.30;99.90;;;;;;5073915;28;20025;-76
2021/06/24 04:55:10;;;;;;;13.60;5.18;;;16.30;99.90;;;;;;5088931;28;20028;-76
2021/06/24 04:57:36;;;;;;;7.35;5.40;;;16.30;99.90;;;;;;5086531;28;20043;-76
2021/06/24 05:00:04;;;;;;;13.13;5.60;;;16.30;99.90;;;;;;5087397;28;20051;-76
2021/06/24 05:02:30;;;;;;;9.35;5.25;;;16.30;99.90;;;;;;5075103;28;20469;-76
2021/06/24 05:04:56;;;;;;;10.82;4.57;;;16.30;99.90;;;;;;5075168;28;20032;-75
2021/06/24 05:07:22;;;;;;;10.27;4.50;;;16.30;99.90;;;;;;5079483;28;20111;-75
2021/06/24 05:09:47;;;;;;;8.02;5.38;;;16.40;99.90;;;;;;5084705;28;20519;-76
2021/06/24 05:12:13;;;;;;;10.30;4.28;;;16.30;99.90;;;;;;5083999;28;20032;-76
2021/06/24 05:14:40;;;;;;;8.95;5.13;;;16.30;99.90;;;;;;5088490;28;20051;-76
2021/06/24 05:17:10;;;;;;;8.65;5.13;;;16.30;99.90;;;;;;5080384;28;21738;-76
2021/06/24 05:19:35;;;;;;;10.25;5.25;;;16.40;99.90;;;;;;5087120;28;20024;-76
2021/06/24 05:22:01;;;;;;;9.65;5.93;;;16.40;99.90;;;;;;5080765;28;21411;-75
2021/06/24 05:24:27;;;;;;;8.00;5.13;;;16.40;99.90;;;;;;5085053;28;20016;-76
2021/06/24 05:26:53;;;;;;;7.40;5.28;;;16.50;99.90;;;;;;5080773;28;20047;-76
2021/06/24 05:29:18;;;;;;;8.43;5.18;;;16.40;99.90;;;;;;5087374;28;20040;-76
2021/06/24 05:31:44;;;;;;;9.85;5.57;;;16.50;99.90;;;;;;5085078;28;20024;-75
2021/06/24 05:34:09;;;;;;;8.98;5.50;;;16.50;99.90;;;;;;5088079;28;20036;-75
2021/06/24 05:36:36;;;;;;;11.38;5.85;;;16.60;99.90;;;;;;5080772;28;20031;-76
2021/06/24 05:39:02;;;;;;;11.50;5.00;;;16.60;99.90;;;;;;5082425;28;20028;-77
2021/06/24 05:41:28;;;;;;;12.07;6.00;;;16.60;99.90;;;;;;5078872;28;20035;-76
2021/06/24 05:43:54;;;;;;;12.25;5.68;;;16.60;99.90;;;;;;5090501;28;20024;-78
2021/06/24 05:46:19;;;;;;;12.52;5.75;;;16.60;99.90;;;;;;5089866;28;20030;-79
2021/06/24 05:48:45;;;;;;;10.38;5.47;;;16.60;99.90;;;;;;5089189;28;20020;-78
2021/06/24 05:51:11;;;;;;;7.65;5.35;;;16.60;99.90;;;;;;5085641;28;20020;-76
2021/06/24 05:53:37;;;;;;;9.75;5.38;;;16.70;99.90;;;;;;5090106;28;20040;-77
2021/06/24 05:56:02;;;;;;;11.13;5.80;;;16.70;99.90;;;;;;5076053;28;20020;-80
2021/06/24 05:58:29;;;;;;;9.82;5.40;;;16.70;99.90;;;;;;5077137;28;20170;-79
2021/06/24 06:00:56;;;;;;;9.90;5.60;;;16.70;99.90;;;;;;5083016;28;20017;-79
2021/06/24 06:03:23;;;;;;;13.65;5.97;;;16.70;99.90;;;;;;5075280;28;20382;-78
2021/06/24 06:05:50;;;;;;;14.93;5.93;;;16.70;99.90;;;;;;5081345;28;20419;-79
2021/06/24 06:08:16;;;;;;;10.02;5.97;;;16.70;99.90;;;;;;5075997;28;20036;-79
2021/06/24 06:10:42;;;;;;;10.35;5.82;;;16.70;99.90;;;;;;5084275;28;20381;-79
2021/06/24 06:13:09;;;;;;;9.55;5.80;;;16.70;99.90;;;;;;5082201;28;20032;-80
2021/06/24 06:15:35;;;;;;;9.40;6.35;;;16.70;99.90;;;;;;5086315;28;20031;-82
2021/06/24 06:18:01;;;;;;;12.77;6.28;;;16.80;99.90;;;;;;5086494;28;20068;-83
2021/06/24 06:20:28;;;;;;;10.70;5.90;;;16.80;99.90;;;;;;5087481;28;20439;-83
2021/06/24 06:22:54;;;;;;;12.05;6.60;;;16.80;99.90;;;;;;5082867;28;20028;-83
2021/06/24 06:25:19;;;;;;;9.63;6.05;;;16.90;99.90;;;;;;5078388;28;20031;-83
2021/06/24 06:27:45;;;;;;;11.35;6.05;;;16.90;99.90;;;;;;5073721;28;20029;-84
2021/06/24 06:30:11;;;;;;;8.45;5.95;;;16.90;99.90;;;;;;5077267;28;20028;-83
2021/06/24 06:32:36;;;;;;;10.05;5.80;;;17.00;99.90;;;;;;5083839;28;20043;-84
2021/06/24 06:35:02;;;;;;;11.15;6.00;;;17.00;99.90;;;;;;5073783;28;20025;-79
2021/06/24 06:37:32;;;;;;;10.77;5.82;;;17.10;99.90;;;;;;5077174;28;20024;-81
2021/06/24 06:39:57;;;;;;;8.93;5.90;;;17.10;99.90;;;;;;5071990;28;20039;-80
2021/06/24 06:42:23;;;;;;;12.45;6.40;;;17.20;99.90;;;;;;5074689;28;20399;-78
2021/06/24 06:44:48;;;;;;;10.25;6.65;;;17.30;99.90;;;;;;5071240;28;20070;-85
2021/06/24 06:47:14;;;;;;;10.65;6.63;;;17.30;99.90;;;;;;5073957;28;20048;-87
2021/06/24 06:49:40;;;;;;;15.75;6.65;;;17.40;99.90;;;;;;5085989;28;20032;-85
2021/06/24 06:52:06;;;;;;;15.70;6.50;;;17.40;99.90;;;;;;5074996;28;20046;-86
2021/06/24 06:54:31;;;;;;;11.80;6.68;;;17.50;99.90;;;;;;5077563;28;20534;-92
2021/06/24 06:56:56;;;;;;;7.85;5.80;;;17.50;99.90;;;;;;5073360;28;20487;-87
2021/06/24 06:59:22;;;;;;;11.40;6.35;;;17.60;99.90;;;;;;5082630;28;20122;-85
2021/06/24 07:01:48;;;;;;;15.32;7.00;;;17.70;99.90;;;;;;5080600;28;20029;-84
2021/06/24 07:04:13;;;;;;;14.93;6.50;;;17.80;99.90;;;;;;5084855;28;20116;-84
2021/06/24 07:06:42;;;;;;;14.93;6.53;;;17.90;99.90;;;;;;5075904;28;20048;-91
2021/06/24 07:09:08;;;;;;;11.23;6.75;;;18.00;99.90;;;;;;5073526;28;20097;-86
2021/06/24 07:11:33;;;;;;;15.75;6.47;;;18.10;99.90;;;;;;5076556;28;20062;-86
2021/06/24 07:13:59;;;;;;;14.80;6.47;;;18.10;99.90;;;;;;5076340;28;20111;-83
2021/06/24 07:16:25;;;;;;;11.95;6.53;;;18.20;99.90;;;;;;5083277;28;20642;-86
2021/06/24 07:18:51;;;;;;;10.57;6.65;;;18.30;99.90;;;;;;5078949;28;20016;-83
2021/06/24 07:21:16;;;;;;;9.90;6.68;;;18.40;99.90;;;;;;5076491;28;20574;-85
2021/06/24 07:23:42;;;;;;;11.55;6.15;;;18.50;99.90;;;;;;5078106;28;20020;-86
2021/06/24 07:26:07;;;;;;;14.23;6.70;;;18.60;99.90;;;;;;5080892;28;20035;-86
2021/06/24 07:28:33;;;;;;;14.00;6.75;;;18.70;99.90;;;;;;5084234;28;20410;-85
2021/06/24 07:30:58;;;;;;;12.98;6.20;;;18.70;99.90;;;;;;5073454;28;20082;-84
2021/06/24 07:33:24;;;;;;;10.80;5.85;;;18.70;99.90;;;;;;5081008;28;20501;-80
2021/06/24 07:35:50;;;;;;;14.00;6.70;;;18.70;99.90;;;;;;5079366;28;20547;-89
2021/06/24 07:38:15;;;;;;;12.43;6.57;;;18.70;99.90;;;;;;5090400;28;20024;-85
2021/06/24 07:40:42;;;;;;;10.85;6.68;;;18.70;99.90;;;;;;5086839;28;20897;-76
2021/06/24 07:43:07;;;;;;;9.70;6.75;;;18.70;99.90;;;;;;5082402;28;20020;-77
2021/06/24 07:45:34;;;;;;;12.48;6.25;;;18.70;99.90;;;;;;5079315;28;20077;-87
2021/06/24 07:47:59;;;;;;;13.00;6.53;;;18.70;99.90;;;;;;5084562;28;20605;-80
2021/06/24 07:50:25;;;;;;;10.55;6.68;;;18.60;99.90;;;;;;5074337;28;20029;-81
2021/06/24 07:52:50;;;;;;;9.52;6.47;;;18.60;99.90;;;;;;5079892;28;20390;-77
2021/06/24 07:55:16;;;;;;;17.13;7.65;;;18.50;99.90;;;;;;5083401;28;20031;-77
2021/06/24 07:57:43;;;;;;;12.20;7.10;;;18.50;99.90;;;;;;5085887;28;20025;-77
2021/06/24 08:00:10;;;;;;;13.05;7.28;;;18.50;99.90;;;;;;5076929;28;20111;-77
2021/06/24 08:02:36;;;;;;;11.68;6.63;;;18.50;99.90;;;;;;5090024;28;20051;-77
2021/06/24 08:05:01;;;;;;;9.98;6.40;;;18.60;99.90;;;;;;5080562;28;20038;-78
2021/06/24 08:07:27;;;;;;;14.32;6.40;;;18.70;99.90;;;;;;5080725;28;20457;-75
2021/06/24 08:09:52;;;;;;;12.52;7.00;;;18.80;99.90;;;;;;5083658;28;20077;-76
2021/06/24 08:12:18;;;;;;;13.77;6.68;;;18.90;99.90;;;;;;5077159;28;20059;-76
2021/06/24 08:15:13;;;;;;;9.55;6.55;;;19.10;99.90;;;;;;5076941;28;20483;-75
2021/06/24 08:17:38;;;;;;;18.30;7.25;;;19.20;99.90;;;;;;5075937;28;20032;-74
2021/06/24 08:20:05;;;;;;;15.43;6.35;;;19.30;99.90;;;;;;5085679;28;20498;-74
2021/06/24 08:22:31;;;;;;;13.43;6.63;;;19.30;99.90;;;;;;5087761;28;20143;-74
2021/06/24 08:24:57;;;;;;;14.20;6.47;;;19.30;99.90;;;;;;5090841;28;20532;-74
2021/06/24 08:27:25;;;;;;;10.55;6.88;;;19.20;99.90;;;;;;5083361;28;20024;-76
2021/06/24 08:29:51;;;;;;;9.88;6.43;;;19.30;99.90;;;;;;5077982;28;20031;-75
2021/06/24 08:32:17;;;;;;;13.10;6.50;;;19.30;99.90;;;;;;5082782;28;20103;-75
2021/06/24 08:34:43;;;;;;;12.68;6.47;;;19.30;99.90;;;;;;5090354;28;20116;-75
2021/06/24 08:37:08;;;;;;;15.80;7.53;;;19.30;99.90;;;;;;5089370;28;20032;-75
2021/06/24 08:39:34;;;;;;;10.90;6.80;;;19.40;99.90;;;;;;5091770;28;20024;-75
2021/06/24 08:42:00;;;;;;;15.88;7.07;;;19.50;99.90;;;;;;5087820;28;20526;-74
2021/06/24 08:44:26;;;;;;;10.55;7.15;;;19.60;99.90;;;;;;5088615;28;20478;-76
2021/06/24 08:46:56;;;;;;;11.95;6.45;;;19.70;99.90;;;;;;5084991;28;20028;-76
2021/06/24 08:49:26;;;;;;;10.35;6.65;;;19.80;99.90;;;;;;5076758;28;20036;-75
2021/06/24 08:51:54;;;;;;;11.47;7.33;;;20.00;99.90;;;;;;5078789;28;20023;-76
2021/06/24 08:54:20;;;;;;;12.10;6.32;;;20.20;99.90;;;;;;5076660;28;20370;-75
2021/06/24 08:56:46;;;;;;;13.98;7.15;;;20.30;99.90;;;;;;5091242;28;20467;-75
2021/06/24 08:59:11;;;;;;;11.40;6.75;;;20.40;99.90;;;;;;5088899;28;20107;-76
2021/06/24 09:01:57;;;;;;;10.00;6.72;;;20.40;99.90;;;;;;5077055;28;20024;-76
2021/06/24 09:04:25;;;;;;;14.27;6.78;;;20.40;99.90;;;;;;5082330;28;20032;-76
2021/06/24 09:06:52;;;;;;;10.20;6.10;;;20.40;99.90;;;;;;5081756;28;20044;-77
2021/06/24 09:09:33;;;;;;;11.02;6.20;;;20.40;99.90;;;;;;5089112;28;20546;-76
2021/06/24 09:12:04;;;;;;;13.73;6.22;;;20.50;99.90;;;;;;5090744;28;20028;-76
2021/06/24 09:14:40;;;;;;;11.23;6.57;;;20.60;99.90;;;;;;5089886;28;20036;-77
2021/06/24 09:17:06;;;;;;;13.07;5.90;;;20.70;99.90;;;;;;5077680;28;20036;-76
2021/06/24 09:19:32;;;;;;;12.70;6.38;;;20.80;99.90;;;;;;5080964;28;20024;-77
2021/06/24 09:22:12;;;;;;;12.23;6.32;;;20.80;99.90;;;;;;5089789;28;20024;-76
2021/06/24 09:24:43;;;;;;;13.52;6.82;;;20.80;99.90;;;;;;5077927;28;20044;-76
2021/06/24 09:27:18;;;;;;;13.02;5.90;;;20.90;99.90;;;;;;5090640;28;20020;-76
2021/06/24 09:30:08;;;;;;;13.85;6.57;;;20.90;99.90;;;;;;5086934;28;20028;-76
2021/06/24 09:32:45;;;;;;;13.60;7.10;;;21.00;99.90;;;;;;5090264;28;20058;-77
2021/06/24 09:35:25;;;;;;;12.32;6.80;;;21.00;99.90;;;;;;5083298;28;20520;-77
2021/06/24 09:38:10;;;;;;;12.30;6.80;;;21.00;99.90;;;;;;5089389;28;20035;-76
2021/06/24 09:40:40;;;;;;;12.65;6.40;;;21.00;99.90;;;;;;5079829;28;20498;-75
2021/06/24 09:43:06;;;;;;;14.18;6.50;;;21.00;99.90;;;;;;5088369;28;20042;-77
2021/06/24 09:45:34;;;;;;;12.43;6.78;;;21.00;99.90;;;;;;5089213;28;20028;-77
2021/06/24 09:48:10;;;;;;;11.73;6.40;;;21.10;99.90;;;;;;5090172;28;20047;-76
2021/06/24 09:50:40;;;;;;;10.55;6.65;;;21.10;99.90;;;;;;5090040;28;20028;-76
2021/06/24 09:53:08;;;;;;;9.55;5.95;;;21.20;99.90;;;;;;5084295;28;20086;-78
2021/06/24 09:55:34;;;;;;;15.73;6.78;;;21.30;99.90;;;;;;5079364;28;20382;-76
2021/06/24 09:58:15;;;;;;;9.45;6.68;;;21.20;99.90;;;;;;5088159;28;20032;-77
2021/06/24 10:00:52;;;;;;;10.70;6.25;;;21.30;99.90;;;;;;5083349;28;20047;-78
2021/06/24 10:03:21;;;;;;;12.48;6.80;;;21.40;99.90;;;;;;5088277;28;20032;-76
2021/06/24 10:05:48;;;;;;;9.90;6.20;;;21.40;99.90;;;;;;5088568;28;20024;-76
2021/06/24 10:08:14;;;;;;;10.70;6.25;;;21.30;99.90;;;;;;5087889;28;20052;-76
2021/06/24 10:10:43;;;;;;;9.98;6.68;;;21.30;99.90;;;;;;5071565;28;20104;-94
2021/06/24 10:13:10;;;;;;;9.73;5.47;;;21.30;99.90;;;;;;5087639;28;20035;-78
2021/06/24 10:15:36;;;;;;;10.13;5.95;;;21.40;99.90;;;;;;5079074;28;20025;-79
2021/06/24 10:18:03;;;;;;;12.15;6.93;;;21.40;99.90;;;;;;5069691;28;20039;-77
2021/06/24 10:20:31;;;;;;;12.60;6.78;;;21.40;99.90;;;;;;5069154;28;20028;-76
2021/06/24 10:23:05;;;;;;;11.13;6.47;;;21.40;99.90;;;;;;5080111;28;20125;-78
2021/06/24 10:25:34;;;;;;;12.30;6.50;;;21.50;99.90;;;;;;5079494;28;20498;-76
2021/06/24 10:28:01;;;;;;;11.35;6.90;;;21.50;99.90;;;;;;5086413;28;20074;-82
2021/06/24 10:30:35;;;;;;;9.45;5.85;;;21.50;99.90;;;;;;5075620;28;20028;-77
2021/06/24 10:33:08;;;;;;;11.25;6.28;;;21.50;99.90;;;;;;5081512;28;20774;-76
2021/06/24 10:35:37;;;;;;;11.70;7.45;;;21.40;99.90;;;;;;5078486;28;20031;-76
2021/06/24 10:38:04;;;;;;;11.95;6.85;;;21.50;99.90;;;;;;5079197;28;20487;-76
2021/06/24 10:40:39;;;;;;;13.20;7.18;;;21.50;99.90;;;;;;5083391;28;20201;-76
2021/06/24 10:43:13;;;;;;;12.35;7.60;;;21.50;99.90;;;;;;5088605;28;20028;-76
2021/06/24 10:45:40;;;;;;;9.55;6.90;;;21.60;99.90;;;;;;5088889;28;20061;-76
2021/06/24 10:48:28;;;;;;;14.10;7.40;;;21.60;99.90;;;;;;5079941;28;20035;-76
2021/06/24 10:50:58;;;;;;;12.20;7.53;;;21.60;99.90;;;;;;5087496;28;20028;-76
2021/06/24 10:53:36;;;;;;;12.75;7.50;;;21.70;99.90;;;;;;5088962;28;20020;-76
2021/06/24 10:56:20;;;;;;;11.50;6.57;;;21.70;99.90;;;;;;5085987;28;20032;-76
2021/06/24 10:58:45;;;;;;;10.25;6.32;;;21.70;99.90;;;;;;5083236;28;20490;-76
2021/06/24 11:01:11;;;;;;;9.52;6.35;;;21.80;99.90;;;;;;5084824;28;20081;-76
2021/06/24 11:03:40;;;;;;;9.90;5.57;;;21.80;99.90;;;;;;5085361;28;20070;-77
2021/06/24 11:06:12;;;;;;;8.90;5.70;;;21.80;99.90;;;;;;5086768;28;20510;-76
2021/06/24 11:08:42;;;;;;;9.10;5.70;;;21.90;99.90;;;;;;5079009;28;20040;-77
2021/06/24 11:11:09;;;;;;;10.55;5.55;;;22.00;99.90;;;;;;5080937;28;20054;-76
2021/06/24 11:13:39;;;;;;;9.65;5.45;;;22.00;99.90;;;;;;5071178;28;20035;-76
2021/06/24 11:16:27;;;;;;;7.40;4.65;;;21.90;99.90;;;;;;5081351;28;20143;-76
2021/06/24 11:19:11;;;;;;;10.10;6.70;;;21.90;99.90;;;;;;5086578;28;20024;-76
2021/06/24 11:21:37;;;;;;;10.20;7.65;;;21.90;99.90;;;;;;5087522;28;20077;-76
2021/06/24 11:24:14;;;;;;;7.93;5.30;;;22.00;99.90;;;;;;5088915;28;20483;-76
2021/06/24 11:27:35;;;;;;;10.32;4.82;;;22.20;99.90;;;;;;5084942;28;20178;-76
2021/06/24 11:30:01;;;;;;;6.43;4.80;;;22.20;99.90;;;;;;5065416;28;20033;-76
2021/06/24 11:32:36;;;;;;;5.07;4.28;;;22.10;99.90;;;;;;5080480;28;20603;-76
2021/06/24 11:35:14;;;;;;;6.80;4.35;;;22.00;99.90;;;;;;5082971;28;20024;-76
2021/06/24 11:37:39;;;;;;;7.32;4.50;;;21.90;99.90;;;;;;5078058;28;20028;-76
2021/06/24 11:40:10;;;;;;;8.15;4.18;;;21.70;99.90;;;;;;5073938;28;20021;-77
2021/06/24 11:42:46;;;;;;;5.87;3.60;;;21.60;99.90;;;;;;5076850;28;20036;-76
2021/06/24 11:45:17;;;;;;;7.40;3.60;;;21.50;99.90;;;;;;5068696;28;20258;-77
2021/06/24 11:47:45;;;;;;;4.93;3.67;;;21.50;99.90;;;;;;5070875;28;20507;-77
2021/06/24 12:04:17;;;;;;;7.40;3.80;;;21.80;99.90;;;;;;5075438;28;20032;-78
2021/06/24 12:06:49;;;;;;;6.63;3.95;;;22.10;99.90;;;;;;5079840;28;20523;-78
2021/06/24 12:09:20;;;;;;;6.28;3.70;;;22.40;99.90;;;;;;5081493;28;20044;-77
2021/06/24 12:11:48;;;;;;;5.93;3.55;;;22.60;99.90;;;;;;5080764;28;20032;-77
2021/06/24 12:14:15;;;;;;;5.10;3.67;;;22.90;99.90;;;;;;5083689;28;20036;-78
2021/06/24 12:16:41;;;;;;;6.63;3.60;;;23.10;98.80;;;;;;5086422;28;20082;-78
2021/06/24 12:19:06;;;;;;;8.55;3.47;;;23.10;97.30;;;;;;5087709;28;20020;-78
2021/06/24 12:21:32;;;;;;;7.47;3.97;;;23.20;96.60;;;;;;5076815;28;20020;-77
2021/06/24 12:23:57;;;;;;;4.28;3.53;;;23.10;98.40;;;;;;5089263;28;20020;-77
2021/06/24 12:26:23;;;;;;;4.97;3.65;;;23.00;98.00;;;;;;5089873;28;20038;-77
2021/06/24 12:28:48;;;;;;;7.20;3.95;;;23.00;99.60;;;;;;5086574;28;20548;-77
2021/06/24 12:31:19;;;;;;;5.63;3.17;;;23.00;98.90;;;;;;5080668;28;20020;-77
2021/06/24 12:33:47;;;;;;;5.20;3.70;;;23.00;99.40;;;;;;5091573;28;20055;-77
2021/06/24 12:36:12;;;;;;;8.32;3.45;;;23.10;99.00;;;;;;5087089;28;20105;-77
2021/06/24 12:38:43;;;;;;;4.07;3.25;;;23.10;99.40;;;;;;5078895;28;20016;-77
2021/06/24 12:41:13;;;;;;;6.97;3.55;;;23.10;99.90;;;;;;5079200;28;20082;-77
2021/06/24 12:43:39;;;;;;;6.53;3.50;;;23.00;98.90;;;;;;5090469;28;20025;-77
2021/06/24 12:46:06;;;;;;;4.00;3.08;;;22.90;98.40;;;;;;5079350;28;20039;-77
2021/06/24 12:48:37;;;;;;;6.45;3.22;;;22.80;97.10;;;;;;5073471;28;20032;-77
2021/06/24 12:51:20;;;;;;;5.38;3.55;;;22.70;97.10;;;;;;5084307;28;20031;-77
2021/06/24 12:53:49;;;;;;;4.32;3.15;;;22.60;98.40;;;;;;5078953;28;20060;-77
2021/06/24 12:56:30;;;;;;;4.15;3.25;;;22.50;98.90;;;;;;5082200;28;20020;-77
2021/06/24 12:59:20;;;;;;;5.05;3.28;;;22.30;99.80;;;;;;5089659;28;20566;-77